sensor_id;sensor_type;location;lat;lon;timestamp;P1;durP1;ratioP1;P2;durP2;ratioP2
37609;SDS011;23457;51.966;8.230;2022-10-30T00:00:43;21.98;;;8.90;;
37609;SDS011;23457;51.966;8.230;2022-10-30T00:03:13;18.88;;;9.55;;
37609;SDS011;23457;51.966;8.230;2022-10-30T00:05:44;26.52;;;9.23;;
37609;SDS011;23457;51.966;8.230;2022-10-30T00:08:13;12.88;;;8.05;;
37609;SDS011;23457;51.966;8.230;2022-10-30T00:10:41;18.45;;;8.48;;
37609;SDS011;23457;51.966;8.230;2022-10-30T00:13:09;14.95;;;8.25;;
37609;SDS011;23457;51.966;8.230;2022-10-30T00:15:36;20.83;;;8.90;;
37609;SDS011;23457;51.966;8.230;2022-10-30T00:18:03;19.63;;;9.27;;
37609;SDS011;23457;51.966;8.230;2022-10-30T00:20:30;18.75;;;9.35;;
37609;SDS011;23457;51.966;8.230;2022-10-30T00:22:58;17.95;;;8.90;;
37609;SDS011;23457;51.966;8.230;2022-10-30T00:25:25;23.15;;;9.98;;
37609;SDS011;23457;51.966;8.230;2022-10-30T00:27:52;17.90;;;8.20;;
37609;SDS011;23457;51.966;8.230;2022-10-30T00:30:18;21.67;;;9.85;;
37609;SDS011;23457;51.966;8.230;2022-10-30T00:32:45;15.95;;;9.75;;
37609;SDS011;23457;51.966;8.230;2022-10-30T00:35:11;25.55;;;9.10;;
37609;SDS011;23457;51.966;8.230;2022-10-30T00:37:38;24.48;;;9.77;;
37609;SDS011;23457;51.966;8.230;2022-10-30T00:40:05;25.00;;;9.35;;
37609;SDS011;23457;51.966;8.230;2022-10-30T00:42:32;22.48;;;9.13;;
37609;SDS011;23457;51.966;8.230;2022-10-30T00:45:02;19.55;;;9.27;;
37609;SDS011;23457;51.966;8.230;2022-10-30T00:47:37;16.17;;;7.93;;
37609;SDS011;23457;51.966;8.230;2022-10-30T00:52:39;18.10;;;8.70;;
37609;SDS011;23457;51.966;8.230;2022-10-30T00:55:14;19.35;;;9.13;;
37609;SDS011;23457;51.966;8.230;2022-10-30T00:57:46;18.33;;;9.38;;
37609;SDS011;23457;51.966;8.230;2022-10-30T01:00:14;17.48;;;8.88;;
37609;SDS011;23457;51.966;8.230;2022-10-30T01:02:41;16.98;;;8.90;;
37609;SDS011;23457;51.966;8.230;2022-10-30T01:05:10;17.80;;;8.95;;
37609;SDS011;23457;51.966;8.230;2022-10-30T01:07:40;15.50;;;8.40;;
37609;SDS011;23457;51.966;8.230;2022-10-30T01:10:07;22.77;;;8.07;;
37609;SDS011;23457;51.966;8.230;2022-10-30T01:12:35;21.90;;;8.75;;
37609;SDS011;23457;51.966;8.230;2022-10-30T01:15:04;18.35;;;9.32;;
37609;SDS011;23457;51.966;8.230;2022-10-30T01:20:12;21.50;;;8.75;;
37609;SDS011;23457;51.966;8.230;2022-10-30T01:25:48;14.98;;;8.30;;
37609;SDS011;23457;51.966;8.230;2022-10-30T01:36:46;19.42;;;8.95;;
37609;SDS011;23457;51.966;8.230;2022-10-30T01:39:21;17.08;;;8.57;;
37609;SDS011;23457;51.966;8.230;2022-10-30T01:41:52;18.88;;;8.38;;
37609;SDS011;23457;51.966;8.230;2022-10-30T01:44:21;20.02;;;9.27;;
37609;SDS011;23457;51.966;8.230;2022-10-30T01:46:58;16.77;;;8.55;;
37609;SDS011;23457;51.966;8.230;2022-10-30T01:55:03;18.95;;;9.95;;
37609;SDS011;23457;51.966;8.230;2022-10-30T01:57:40;22.27;;;8.70;;
37609;SDS011;23457;51.966;8.230;2022-10-30T02:00:13;18.95;;;8.70;;
37609;SDS011;23457;51.966;8.230;2022-10-30T02:02:47;22.63;;;8.65;;
37609;SDS011;23457;51.966;8.230;2022-10-30T02:05:37;15.68;;;8.45;;
37609;SDS011;23457;51.966;8.230;2022-10-30T02:08:08;14.50;;;8.55;;
37609;SDS011;23457;51.966;8.230;2022-10-30T02:10:37;14.50;;;9.17;;
37609;SDS011;23457;51.966;8.230;2022-10-30T02:13:04;18.67;;;9.05;;
37609;SDS011;23457;51.966;8.230;2022-10-30T02:15:31;17.00;;;8.80;;
37609;SDS011;23457;51.966;8.230;2022-10-30T02:17:59;17.23;;;8.25;;
37609;SDS011;23457;51.966;8.230;2022-10-30T02:20:27;15.50;;;8.57;;
37609;SDS011;23457;51.966;8.230;2022-10-30T02:22:53;17.85;;;8.93;;
37609;SDS011;23457;51.966;8.230;2022-10-30T02:25:29;16.33;;;8.10;;
37609;SDS011;23457;51.966;8.230;2022-10-30T02:27:56;13.80;;;7.88;;
37609;SDS011;23457;51.966;8.230;2022-10-30T02:30:26;21.98;;;8.95;;
37609;SDS011;23457;51.966;8.230;2022-10-30T02:32:52;14.85;;;7.82;;
37609;SDS011;23457;51.966;8.230;2022-10-30T02:35:19;15.02;;;8.82;;
37609;SDS011;23457;51.966;8.230;2022-10-30T02:37:47;18.45;;;8.88;;
37609;SDS011;23457;51.966;8.230;2022-10-30T02:40:14;16.70;;;9.35;;
37609;SDS011;23457;51.966;8.230;2022-10-30T02:42:41;21.67;;;9.98;;
37609;SDS011;23457;51.966;8.230;2022-10-30T02:45:07;17.95;;;9.15;;
37609;SDS011;23457;51.966;8.230;2022-10-30T02:47:34;18.75;;;10.05;;
37609;SDS011;23457;51.966;8.230;2022-10-30T02:50:01;25.08;;;9.82;;
37609;SDS011;23457;51.966;8.230;2022-10-30T02:52:27;17.83;;;9.55;;
37609;SDS011;23457;51.966;8.230;2022-10-30T02:54:55;18.20;;;9.18;;
37609;SDS011;23457;51.966;8.230;2022-10-30T02:57:21;18.55;;;8.30;;
37609;SDS011;23457;51.966;8.230;2022-10-30T02:59:48;18.35;;;9.02;;
37609;SDS011;23457;51.966;8.230;2022-10-30T03:02:15;20.55;;;8.88;;
37609;SDS011;23457;51.966;8.230;2022-10-30T03:04:41;25.80;;;9.15;;
37609;SDS011;23457;51.966;8.230;2022-10-30T03:07:09;22.77;;;9.95;;
37609;SDS011;23457;51.966;8.230;2022-10-30T03:09:36;20.08;;;9.77;;
37609;SDS011;23457;51.966;8.230;2022-10-30T03:12:03;20.77;;;10.13;;
37609;SDS011;23457;51.966;8.230;2022-10-30T03:14:29;19.45;;;9.32;;
37609;SDS011;23457;51.966;8.230;2022-10-30T03:16:56;16.52;;;9.25;;
37609;SDS011;23457;51.966;8.230;2022-10-30T03:19:22;21.85;;;9.88;;
37609;SDS011;23457;51.966;8.230;2022-10-30T03:21:52;19.40;;;9.38;;
37609;SDS011;23457;51.966;8.230;2022-10-30T03:24:19;18.30;;;9.13;;
37609;SDS011;23457;51.966;8.230;2022-10-30T03:26:46;16.85;;;9.02;;
37609;SDS011;23457;51.966;8.230;2022-10-30T03:29:12;17.02;;;9.80;;
37609;SDS011;23457;51.966;8.230;2022-10-30T03:31:39;19.50;;;9.20;;
37609;SDS011;23457;51.966;8.230;2022-10-30T03:34:17;13.80;;;9.38;;
37609;SDS011;23457;51.966;8.230;2022-10-30T03:36:44;23.52;;;9.68;;
37609;SDS011;23457;51.966;8.230;2022-10-30T03:39:11;21.10;;;9.65;;
37609;SDS011;23457;51.966;8.230;2022-10-30T03:41:41;23.30;;;10.82;;
37609;SDS011;23457;51.966;8.230;2022-10-30T03:44:08;16.67;;;9.50;;
37609;SDS011;23457;51.966;8.230;2022-10-30T03:46:35;15.77;;;8.73;;
37609;SDS011;23457;51.966;8.230;2022-10-30T03:49:23;17.42;;;9.63;;
37609;SDS011;23457;51.966;8.230;2022-10-30T03:51:50;23.27;;;9.63;;
37609;SDS011;23457;51.966;8.230;2022-10-30T03:54:16;19.63;;;9.40;;
37609;SDS011;23457;51.966;8.230;2022-10-30T03:56:44;16.65;;;10.15;;
37609;SDS011;23457;51.966;8.230;2022-10-30T03:59:14;14.50;;;8.82;;
37609;SDS011;23457;51.966;8.230;2022-10-30T04:01:48;19.45;;;9.93;;
37609;SDS011;23457;51.966;8.230;2022-10-30T04:04:15;15.90;;;8.95;;
37609;SDS011;23457;51.966;8.230;2022-10-30T04:06:42;16.45;;;9.57;;
37609;SDS011;23457;51.966;8.230;2022-10-30T04:09:09;17.80;;;10.10;;
37609;SDS011;23457;51.966;8.230;2022-10-30T04:11:39;21.20;;;9.32;;
37609;SDS011;23457;51.966;8.230;2022-10-30T04:14:06;16.42;;;9.45;;
37609;SDS011;23457;51.966;8.230;2022-10-30T04:16:33;14.95;;;9.35;;
37609;SDS011;23457;51.966;8.230;2022-10-30T04:19:00;16.92;;;8.45;;
37609;SDS011;23457;51.966;8.230;2022-10-30T04:21:27;21.13;;;9.43;;
37609;SDS011;23457;51.966;8.230;2022-10-30T04:23:54;14.50;;;8.80;;
37609;SDS011;23457;51.966;8.230;2022-10-30T04:26:24;17.08;;;9.43;;
37609;SDS011;23457;51.966;8.230;2022-10-30T04:28:51;18.75;;;9.20;;
37609;SDS011;23457;51.966;8.230;2022-10-30T04:31:18;17.02;;;9.60;;
37609;SDS011;23457;51.966;8.230;2022-10-30T04:33:45;16.80;;;10.35;;
37609;SDS011;23457;51.966;8.230;2022-10-30T04:36:11;14.63;;;9.45;;
37609;SDS011;23457;51.966;8.230;2022-10-30T04:38:38;19.48;;;10.00;;
37609;SDS011;23457;51.966;8.230;2022-10-30T04:41:08;12.18;;;8.38;;
37609;SDS011;23457;51.966;8.230;2022-10-30T04:43:47;18.25;;;9.57;;
37609;SDS011;23457;51.966;8.230;2022-10-30T04:46:14;19.33;;;9.93;;
37609;SDS011;23457;51.966;8.230;2022-10-30T04:48:42;18.65;;;8.85;;
37609;SDS011;23457;51.966;8.230;2022-10-30T04:51:09;18.52;;;9.73;;
37609;SDS011;23457;51.966;8.230;2022-10-30T04:53:37;18.33;;;9.65;;
37609;SDS011;23457;51.966;8.230;2022-10-30T04:56:06;19.45;;;9.35;;
37609;SDS011;23457;51.966;8.230;2022-10-30T04:58:32;20.27;;;9.27;;
37609;SDS011;23457;51.966;8.230;2022-10-30T05:01:04;17.77;;;9.40;;
37609;SDS011;23457;51.966;8.230;2022-10-30T05:03:32;18.02;;;9.27;;
37609;SDS011;23457;51.966;8.230;2022-10-30T05:06:06;15.80;;;9.02;;
37609;SDS011;23457;51.966;8.230;2022-10-30T05:08:41;16.88;;;8.88;;
37609;SDS011;23457;51.966;8.230;2022-10-30T05:11:18;17.00;;;9.68;;
37609;SDS011;23457;51.966;8.230;2022-10-30T05:13:45;13.65;;;8.43;;
37609;SDS011;23457;51.966;8.230;2022-10-30T05:16:12;23.58;;;9.68;;
37609;SDS011;23457;51.966;8.230;2022-10-30T05:18:38;15.35;;;8.75;;
37609;SDS011;23457;51.966;8.230;2022-10-30T05:21:05;16.45;;;8.85;;
37609;SDS011;23457;51.966;8.230;2022-10-30T05:23:32;20.25;;;9.68;;
37609;SDS011;23457;51.966;8.230;2022-10-30T05:25:59;20.80;;;9.27;;
37609;SDS011;23457;51.966;8.230;2022-10-30T05:28:27;18.20;;;9.07;;
37609;SDS011;23457;51.966;8.230;2022-10-30T05:30:55;15.07;;;9.20;;
37609;SDS011;23457;51.966;8.230;2022-10-30T05:33:41;14.55;;;9.02;;
37609;SDS011;23457;51.966;8.230;2022-10-30T05:36:08;19.10;;;9.43;;
37609;SDS011;23457;51.966;8.230;2022-10-30T05:38:34;20.10;;;9.57;;
37609;SDS011;23457;51.966;8.230;2022-10-30T05:41:01;15.77;;;8.98;;
37609;SDS011;23457;51.966;8.230;2022-10-30T05:43:29;20.33;;;10.32;;
37609;SDS011;23457;51.966;8.230;2022-10-30T05:45:56;17.70;;;9.30;;
37609;SDS011;23457;51.966;8.230;2022-10-30T05:48:23;15.70;;;9.38;;
37609;SDS011;23457;51.966;8.230;2022-10-30T05:50:49;21.20;;;9.63;;
37609;SDS011;23457;51.966;8.230;2022-10-30T05:53:25;21.10;;;9.93;;
37609;SDS011;23457;51.966;8.230;2022-10-30T05:55:56;20.05;;;9.65;;
37609;SDS011;23457;51.966;8.230;2022-10-30T05:58:28;21.00;;;9.63;;
37609;SDS011;23457;51.966;8.230;2022-10-30T06:00:57;20.67;;;8.95;;
37609;SDS011;23457;51.966;8.230;2022-10-30T06:03:49;19.63;;;8.90;;
37609;SDS011;23457;51.966;8.230;2022-10-30T06:06:16;22.95;;;9.75;;
37609;SDS011;23457;51.966;8.230;2022-10-30T06:08:43;18.15;;;9.02;;
37609;SDS011;23457;51.966;8.230;2022-10-30T06:11:26;22.58;;;9.48;;
37609;SDS011;23457;51.966;8.230;2022-10-30T06:13:55;20.05;;;9.38;;
37609;SDS011;23457;51.966;8.230;2022-10-30T06:16:34;19.45;;;10.02;;
37609;SDS011;23457;51.966;8.230;2022-10-30T06:19:15;19.60;;;10.02;;
37609;SDS011;23457;51.966;8.230;2022-10-30T06:21:46;21.40;;;10.77;;
37609;SDS011;23457;51.966;8.230;2022-10-30T06:24:21;15.63;;;10.80;;
37609;SDS011;23457;51.966;8.230;2022-10-30T06:27:09;17.67;;;9.43;;
37609;SDS011;23457;51.966;8.230;2022-10-30T06:29:35;19.40;;;11.63;;
37609;SDS011;23457;51.966;8.230;2022-10-30T06:32:02;19.15;;;10.70;;
37609;SDS011;23457;51.966;8.230;2022-10-30T06:34:32;24.00;;;11.02;;
37609;SDS011;23457;51.966;8.230;2022-10-30T06:36:59;21.88;;;12.35;;
37609;SDS011;23457;51.966;8.230;2022-10-30T06:39:26;21.80;;;11.32;;
37609;SDS011;23457;51.966;8.230;2022-10-30T06:42:09;18.48;;;10.52;;
37609;SDS011;23457;51.966;8.230;2022-10-30T06:44:52;19.42;;;10.68;;
37609;SDS011;23457;51.966;8.230;2022-10-30T06:47:19;29.40;;;11.15;;
37609;SDS011;23457;51.966;8.230;2022-10-30T06:49:46;20.40;;;11.43;;
37609;SDS011;23457;51.966;8.230;2022-10-30T06:52:14;21.92;;;11.02;;
37609;SDS011;23457;51.966;8.230;2022-10-30T06:54:40;22.65;;;12.43;;
37609;SDS011;23457;51.966;8.230;2022-10-30T06:57:26;21.33;;;11.70;;
37609;SDS011;23457;51.966;8.230;2022-10-30T07:00:24;21.30;;;11.50;;
37609;SDS011;23457;51.966;8.230;2022-10-30T07:03:10;24.23;;;11.50;;
37609;SDS011;23457;51.966;8.230;2022-10-30T07:05:38;22.30;;;12.15;;
37609;SDS011;23457;51.966;8.230;2022-10-30T07:08:04;21.73;;;11.38;;
37609;SDS011;23457;51.966;8.230;2022-10-30T07:10:31;25.17;;;12.27;;
37609;SDS011;23457;51.966;8.230;2022-10-30T07:13:18;27.50;;;12.70;;
37609;SDS011;23457;51.966;8.230;2022-10-30T07:15:53;22.58;;;12.43;;
37609;SDS011;23457;51.966;8.230;2022-10-30T07:18:25;22.42;;;12.02;;
37609;SDS011;23457;51.966;8.230;2022-10-30T07:20:56;22.05;;;12.07;;
37609;SDS011;23457;51.966;8.230;2022-10-30T07:23:26;22.15;;;11.40;;
37609;SDS011;23457;51.966;8.230;2022-10-30T07:26:02;20.92;;;11.40;;
37609;SDS011;23457;51.966;8.230;2022-10-30T07:28:44;21.73;;;11.48;;
37609;SDS011;23457;51.966;8.230;2022-10-30T07:31:17;27.05;;;11.77;;
37609;SDS011;23457;51.966;8.230;2022-10-30T07:34:30;23.67;;;12.10;;
37609;SDS011;23457;51.966;8.230;2022-10-30T07:37:16;19.98;;;12.10;;
37609;SDS011;23457;51.966;8.230;2022-10-30T07:39:48;23.00;;;11.75;;
37609;SDS011;23457;51.966;8.230;2022-10-30T07:42:42;20.35;;;12.07;;
37609;SDS011;23457;51.966;8.230;2022-10-30T07:45:08;22.42;;;11.90;;
37609;SDS011;23457;51.966;8.230;2022-10-30T07:48:15;22.23;;;12.10;;
37609;SDS011;23457;51.966;8.230;2022-10-30T07:53:11;20.90;;;12.93;;
37609;SDS011;23457;51.966;8.230;2022-10-30T07:55:38;25.30;;;12.68;;
37609;SDS011;23457;51.966;8.230;2022-10-30T07:58:26;28.52;;;12.50;;
37609;SDS011;23457;51.966;8.230;2022-10-30T08:01:32;30.63;;;14.98;;
37609;SDS011;23457;51.966;8.230;2022-10-30T08:04:25;22.35;;;12.43;;
37609;SDS011;23457;51.966;8.230;2022-10-30T08:06:58;28.83;;;13.18;;
37609;SDS011;23457;51.966;8.230;2022-10-30T08:09:25;27.50;;;13.15;;
37609;SDS011;23457;51.966;8.230;2022-10-30T08:11:52;33.15;;;13.77;;
37609;SDS011;23457;51.966;8.230;2022-10-30T08:14:19;29.27;;;13.25;;
37609;SDS011;23457;51.966;8.230;2022-10-30T08:16:46;25.27;;;12.23;;
37609;SDS011;23457;51.966;8.230;2022-10-30T08:19:13;28.85;;;12.15;;
37609;SDS011;23457;51.966;8.230;2022-10-30T08:21:40;28.48;;;11.52;;
37609;SDS011;23457;51.966;8.230;2022-10-30T08:24:13;19.85;;;10.90;;
37609;SDS011;23457;51.966;8.230;2022-10-30T08:26:43;24.08;;;10.68;;
37609;SDS011;23457;51.966;8.230;2022-10-30T08:29:10;18.45;;;10.45;;
37609;SDS011;23457;51.966;8.230;2022-10-30T08:31:38;22.00;;;10.43;;
37609;SDS011;23457;51.966;8.230;2022-10-30T08:34:25;15.98;;;10.27;;
37609;SDS011;23457;51.966;8.230;2022-10-30T08:37:02;19.42;;;9.70;;
37609;SDS011;23457;51.966;8.230;2022-10-30T08:39:29;21.42;;;11.55;;
37609;SDS011;23457;51.966;8.230;2022-10-30T08:41:58;21.13;;;10.85;;
37609;SDS011;23457;51.966;8.230;2022-10-30T08:44:31;26.40;;;10.90;;
37609;SDS011;23457;51.966;8.230;2022-10-30T08:47:16;24.00;;;9.82;;
37609;SDS011;23457;51.966;8.230;2022-10-30T08:49:44;21.65;;;9.77;;
37609;SDS011;23457;51.966;8.230;2022-10-30T08:52:13;18.73;;;9.63;;
37609;SDS011;23457;51.966;8.230;2022-10-30T08:54:44;33.90;;;9.93;;
37609;SDS011;23457;51.966;8.230;2022-10-30T08:57:11;15.00;;;8.77;;
37609;SDS011;23457;51.966;8.230;2022-10-30T08:59:38;27.00;;;10.23;;
37609;SDS011;23457;51.966;8.230;2022-10-30T09:02:11;37.67;;;12.55;;
37609;SDS011;23457;51.966;8.230;2022-10-30T09:04:56;36.25;;;12.73;;
37609;SDS011;23457;51.966;8.230;2022-10-30T09:07:54;36.15;;;12.23;;
37609;SDS011;23457;51.966;8.230;2022-10-30T09:10:55;24.77;;;9.15;;
37609;SDS011;23457;51.966;8.230;2022-10-30T09:13:23;24.08;;;8.50;;
37609;SDS011;23457;51.966;8.230;2022-10-30T09:15:52;18.47;;;8.33;;
37609;SDS011;23457;51.966;8.230;2022-10-30T09:18:19;16.70;;;8.00;;
37609;SDS011;23457;51.966;8.230;2022-10-30T09:20:49;20.52;;;7.57;;
37609;SDS011;23457;51.966;8.230;2022-10-30T09:23:19;13.82;;;7.65;;
37609;SDS011;23457;51.966;8.230;2022-10-30T09:25:56;17.00;;;7.55;;
37609;SDS011;23457;51.966;8.230;2022-10-30T09:28:49;15.15;;;7.68;;
37609;SDS011;23457;51.966;8.230;2022-10-30T09:31:36;19.83;;;8.57;;
37609;SDS011;23457;51.966;8.230;2022-10-30T09:36:44;24.00;;;8.93;;
37609;SDS011;23457;51.966;8.230;2022-10-30T09:39:16;19.77;;;8.23;;
37609;SDS011;23457;51.966;8.230;2022-10-30T09:44:38;15.18;;;6.90;;
37609;SDS011;23457;51.966;8.230;2022-10-30T09:56:03;22.15;;;7.47;;
37609;SDS011;23457;51.966;8.230;2022-10-30T09:58:49;12.70;;;7.10;;
37609;SDS011;23457;51.966;8.230;2022-10-30T10:04:43;18.65;;;6.80;;
37609;SDS011;23457;51.966;8.230;2022-10-30T10:07:51;22.55;;;7.13;;
37609;SDS011;23457;51.966;8.230;2022-10-30T10:10:50;16.75;;;7.10;;
37609;SDS011;23457;51.966;8.230;2022-10-30T10:13:25;14.43;;;7.03;;
37609;SDS011;23457;51.966;8.230;2022-10-30T10:16:06;20.00;;;7.20;;
37609;SDS011;23457;51.966;8.230;2022-10-30T10:18:37;22.88;;;7.30;;
37609;SDS011;23457;51.966;8.230;2022-10-30T10:21:14;13.90;;;6.60;;
37609;SDS011;23457;51.966;8.230;2022-10-30T10:23:47;14.35;;;6.60;;
37609;SDS011;23457;51.966;8.230;2022-10-30T10:26:26;16.77;;;7.03;;
37609;SDS011;23457;51.966;8.230;2022-10-30T10:31:40;26.90;;;6.27;;
37609;SDS011;23457;51.966;8.230;2022-10-30T10:45:24;15.60;;;6.20;;
37609;SDS011;23457;51.966;8.230;2022-10-30T10:50:46;15.48;;;5.75;;
37609;SDS011;23457;51.966;8.230;2022-10-30T10:53:20;17.63;;;6.05;;
37609;SDS011;23457;51.966;8.230;2022-10-30T10:55:51;15.43;;;5.90;;
37609;SDS011;23457;51.966;8.230;2022-10-30T11:01:37;18.05;;;6.22;;
37609;SDS011;23457;51.966;8.230;2022-10-30T11:04:08;21.60;;;6.75;;
37609;SDS011;23457;51.966;8.230;2022-10-30T11:06:42;21.95;;;6.53;;
37609;SDS011;23457;51.966;8.230;2022-10-30T11:09:15;16.02;;;6.32;;
37609;SDS011;23457;51.966;8.230;2022-10-30T11:11:46;12.05;;;6.25;;
37609;SDS011;23457;51.966;8.230;2022-10-30T11:19:24;20.80;;;5.55;;
37609;SDS011;23457;51.966;8.230;2022-10-30T11:21:52;17.02;;;5.90;;
37609;SDS011;23457;51.966;8.230;2022-10-30T11:24:24;21.27;;;5.68;;
37609;SDS011;23457;51.966;8.230;2022-10-30T11:26:56;18.73;;;5.20;;
37609;SDS011;23457;51.966;8.230;2022-10-30T11:29:24;17.95;;;5.80;;
37609;SDS011;23457;51.966;8.230;2022-10-30T11:31:58;15.35;;;6.10;;
37609;SDS011;23457;51.966;8.230;2022-10-30T11:34:34;18.33;;;5.60;;
37609;SDS011;23457;51.966;8.230;2022-10-30T11:37:03;17.73;;;5.70;;
37609;SDS011;23457;51.966;8.230;2022-10-30T11:39:31;18.65;;;5.95;;
37609;SDS011;23457;51.966;8.230;2022-10-30T11:44:35;17.38;;;5.68;;
37609;SDS011;23457;51.966;8.230;2022-10-30T11:47:05;21.13;;;6.35;;
37609;SDS011;23457;51.966;8.230;2022-10-30T11:49:36;15.43;;;5.40;;
37609;SDS011;23457;51.966;8.230;2022-10-30T11:52:10;20.90;;;5.97;;
37609;SDS011;23457;51.966;8.230;2022-10-30T11:54:40;17.83;;;5.82;;
37609;SDS011;23457;51.966;8.230;2022-10-30T11:57:17;11.65;;;5.03;;
37609;SDS011;23457;51.966;8.230;2022-10-30T12:00:06;15.63;;;5.35;;
37609;SDS011;23457;51.966;8.230;2022-10-30T12:02:40;19.15;;;6.03;;
37609;SDS011;23457;51.966;8.230;2022-10-30T12:07:51;21.65;;;6.28;;
37609;SDS011;23457;51.966;8.230;2022-10-30T12:10:28;18.38;;;5.72;;
37609;SDS011;23457;51.966;8.230;2022-10-30T12:13:02;18.05;;;6.32;;
37609;SDS011;23457;51.966;8.230;2022-10-30T12:15:31;13.70;;;5.35;;
37609;SDS011;23457;51.966;8.230;2022-10-30T12:18:03;13.52;;;5.38;;
37609;SDS011;23457;51.966;8.230;2022-10-30T12:23:07;12.35;;;5.10;;
37609;SDS011;23457;51.966;8.230;2022-10-30T12:25:46;13.38;;;5.90;;
37609;SDS011;23457;51.966;8.230;2022-10-30T12:28:19;23.17;;;4.57;;
37609;SDS011;23457;51.966;8.230;2022-10-30T12:30:49;17.52;;;5.15;;
37609;SDS011;23457;51.966;8.230;2022-10-30T12:33:23;13.90;;;5.35;;
37609;SDS011;23457;51.966;8.230;2022-10-30T12:36:01;15.13;;;5.18;;
37609;SDS011;23457;51.966;8.230;2022-10-30T12:38:32;13.45;;;4.93;;
37609;SDS011;23457;51.966;8.230;2022-10-30T12:41:32;16.15;;;4.93;;
37609;SDS011;23457;51.966;8.230;2022-10-30T12:52:35;15.82;;;4.97;;
37609;SDS011;23457;51.966;8.230;2022-10-30T12:55:11;14.30;;;5.03;;
37609;SDS011;23457;51.966;8.230;2022-10-30T12:57:55;17.55;;;4.72;;
37609;SDS011;23457;51.966;8.230;2022-10-30T13:00:40;15.80;;;5.20;;
37609;SDS011;23457;51.966;8.230;2022-10-30T13:03:29;15.52;;;4.50;;
37609;SDS011;23457;51.966;8.230;2022-10-30T13:06:16;15.63;;;4.20;;
37609;SDS011;23457;51.966;8.230;2022-10-30T13:09:13;16.40;;;7.35;;
37609;SDS011;23457;51.966;8.230;2022-10-30T13:11:55;25.63;;;6.60;;
37609;SDS011;23457;51.966;8.230;2022-10-30T13:14:43;14.00;;;6.03;;
37609;SDS011;23457;51.966;8.230;2022-10-30T13:17:14;20.33;;;5.60;;
37609;SDS011;23457;51.966;8.230;2022-10-30T13:19:42;11.70;;;4.38;;
37609;SDS011;23457;51.966;8.230;2022-10-30T13:22:57;12.35;;;4.78;;
37609;SDS011;23457;51.966;8.230;2022-10-30T13:25:12;17.60;;;5.05;;
37609;SDS011;23457;51.966;8.230;2022-10-30T13:27:54;18.63;;;7.03;;
37609;SDS011;23457;51.966;8.230;2022-10-30T13:30:30;14.15;;;5.45;;
37609;SDS011;23457;51.966;8.230;2022-10-30T13:33:37;13.82;;;5.03;;
37609;SDS011;23457;51.966;8.230;2022-10-30T13:36:10;18.50;;;7.72;;
37609;SDS011;23457;51.966;8.230;2022-10-30T13:39:14;17.40;;;6.63;;
37609;SDS011;23457;51.966;8.230;2022-10-30T13:47:58;16.95;;;4.72;;
37609;SDS011;23457;51.966;8.230;2022-10-30T13:53:14;14.57;;;4.13;;
37609;SDS011;23457;51.966;8.230;2022-10-30T13:55:46;20.05;;;4.50;;
37609;SDS011;23457;51.966;8.230;2022-10-30T14:11:29;9.70;;;4.53;;
37609;SDS011;23457;51.966;8.230;2022-10-30T14:13:57;11.35;;;4.72;;
37609;SDS011;23457;51.966;8.230;2022-10-30T14:16:43;14.10;;;3.90;;
37609;SDS011;23457;51.966;8.230;2022-10-30T14:19:15;13.55;;;4.65;;
37609;SDS011;23457;51.966;8.230;2022-10-30T14:21:50;14.48;;;4.38;;
37609;SDS011;23457;51.966;8.230;2022-10-30T14:32:01;11.82;;;4.80;;
37609;SDS011;23457;51.966;8.230;2022-10-30T14:37:17;14.88;;;4.72;;
37609;SDS011;23457;51.966;8.230;2022-10-30T14:39:44;12.75;;;4.82;;
37609;SDS011;23457;51.966;8.230;2022-10-30T14:47:51;16.95;;;5.75;;
37609;SDS011;23457;51.966;8.230;2022-10-30T14:53:01;14.45;;;6.00;;
37609;SDS011;23457;51.966;8.230;2022-10-30T14:55:54;11.75;;;5.63;;
37609;SDS011;23457;51.966;8.230;2022-10-30T14:58:31;13.30;;;5.47;;
37609;SDS011;23457;51.966;8.230;2022-10-30T15:06:27;13.02;;;6.68;;
37609;SDS011;23457;51.966;8.230;2022-10-30T15:09:02;13.30;;;5.22;;
37609;SDS011;23457;51.966;8.230;2022-10-30T15:14:27;17.50;;;6.45;;
37609;SDS011;23457;51.966;8.230;2022-10-30T15:20:04;14.18;;;6.30;;
37609;SDS011;23457;51.966;8.230;2022-10-30T15:22:34;15.32;;;7.22;;
37609;SDS011;23457;51.966;8.230;2022-10-30T15:25:02;16.00;;;7.22;;
37609;SDS011;23457;51.966;8.230;2022-10-30T15:27:30;15.83;;;6.67;;
37609;SDS011;23457;51.966;8.230;2022-10-30T15:29:59;14.07;;;6.65;;
37609;SDS011;23457;51.966;8.230;2022-10-30T15:32:27;18.92;;;7.38;;
37609;SDS011;23457;51.966;8.230;2022-10-30T15:34:58;14.70;;;6.80;;
37609;SDS011;23457;51.966;8.230;2022-10-30T15:37:26;13.55;;;6.70;;
37609;SDS011;23457;51.966;8.230;2022-10-30T15:42:56;16.27;;;7.68;;
37609;SDS011;23457;51.966;8.230;2022-10-30T15:50:29;24.33;;;8.10;;
37609;SDS011;23457;51.966;8.230;2022-10-30T15:52:57;13.88;;;7.70;;
37609;SDS011;23457;51.966;8.230;2022-10-30T15:55:28;13.82;;;6.68;;
37609;SDS011;23457;51.966;8.230;2022-10-30T15:57:59;17.80;;;8.25;;
37609;SDS011;23457;51.966;8.230;2022-10-30T16:00:32;17.73;;;6.82;;
37609;SDS011;23457;51.966;8.230;2022-10-30T16:03:05;14.57;;;7.43;;
37609;SDS011;23457;51.966;8.230;2022-10-30T16:05:32;16.25;;;7.53;;
37609;SDS011;23457;51.966;8.230;2022-10-30T16:08:00;20.15;;;7.05;;
37609;SDS011;23457;51.966;8.230;2022-10-30T16:10:33;14.23;;;6.93;;
37609;SDS011;23457;51.966;8.230;2022-10-30T16:13:04;16.13;;;7.60;;
37609;SDS011;23457;51.966;8.230;2022-10-30T16:15:36;24.00;;;8.00;;
37609;SDS011;23457;51.966;8.230;2022-10-30T16:18:06;15.23;;;7.57;;
37609;SDS011;23457;51.966;8.230;2022-10-30T16:20:51;16.80;;;8.68;;
37609;SDS011;23457;51.966;8.230;2022-10-30T16:23:20;17.65;;;7.80;;
37609;SDS011;23457;51.966;8.230;2022-10-30T16:25:52;17.33;;;8.43;;
37609;SDS011;23457;51.966;8.230;2022-10-30T16:28:30;17.13;;;9.50;;
37609;SDS011;23457;51.966;8.230;2022-10-30T16:31:00;26.08;;;10.63;;
37609;SDS011;23457;51.966;8.230;2022-10-30T16:35:56;24.55;;;10.38;;
37609;SDS011;23457;51.966;8.230;2022-10-30T16:38:23;15.77;;;10.23;;
37609;SDS011;23457;51.966;8.230;2022-10-30T16:40:53;18.10;;;10.18;;
37609;SDS011;23457;51.966;8.230;2022-10-30T16:43:28;18.50;;;9.23;;
37609;SDS011;23457;51.966;8.230;2022-10-30T16:46:45;19.58;;;9.82;;
37609;SDS011;23457;51.966;8.230;2022-10-30T16:48:59;19.00;;;9.75;;
37609;SDS011;23457;51.966;8.230;2022-10-30T16:51:28;18.48;;;9.52;;
37609;SDS011;23457;51.966;8.230;2022-10-30T16:53:55;18.80;;;9.20;;
37609;SDS011;23457;51.966;8.230;2022-10-30T16:56:23;17.58;;;9.40;;
37609;SDS011;23457;51.966;8.230;2022-10-30T16:58:51;20.85;;;9.38;;
37609;SDS011;23457;51.966;8.230;2022-10-30T17:01:27;22.77;;;10.48;;
37609;SDS011;23457;51.966;8.230;2022-10-30T17:03:54;25.45;;;11.77;;
37609;SDS011;23457;51.966;8.230;2022-10-30T17:06:39;21.05;;;10.30;;
37609;SDS011;23457;51.966;8.230;2022-10-30T17:09:25;31.17;;;11.40;;
37609;SDS011;23457;51.966;8.230;2022-10-30T17:14:48;22.88;;;10.43;;
37609;SDS011;23457;51.966;8.230;2022-10-30T17:17:37;18.65;;;10.70;;
37609;SDS011;23457;51.966;8.230;2022-10-30T17:22:32;20.75;;;10.73;;
37609;SDS011;23457;51.966;8.230;2022-10-30T17:24:59;21.67;;;10.75;;
37609;SDS011;23457;51.966;8.230;2022-10-30T17:27:37;24.05;;;11.80;;
37609;SDS011;23457;51.966;8.230;2022-10-30T17:36:02;23.35;;;11.48;;
37609;SDS011;23457;51.966;8.230;2022-10-30T17:38:30;24.35;;;12.02;;
37609;SDS011;23457;51.966;8.230;2022-10-30T17:40:57;24.95;;;12.57;;